sensor_id;sensor_type;location;lat;lon;timestamp;P1;durP1;ratioP1;P2;durP2;ratioP2
8183;SDS011;4133;48.752;9.088;2022-12-18T00:00:01;34.17;;;13.10;;
8183;SDS011;4133;48.752;9.088;2022-12-18T00:02:28;27.70;;;11.90;;
8183;SDS011;4133;48.752;9.088;2022-12-18T00:04:54;27.70;;;11.73;;
8183;SDS011;4133;48.752;9.088;2022-12-18T00:07:20;30.00;;;12.70;;
8183;SDS011;4133;48.752;9.088;2022-12-18T00:09:46;31.90;;;12.07;;
8183;SDS011;4133;48.752;9.088;2022-12-18T00:12:12;27.20;;;11.63;;
8183;SDS011;4133;48.752;9.088;2022-12-18T00:14:38;30.07;;;11.70;;
8183;SDS011;4133;48.752;9.088;2022-12-18T00:17:04;27.70;;;11.67;;
8183;SDS011;4133;48.752;9.088;2022-12-18T00:19:30;30.40;;;12.40;;
8183;SDS011;4133;48.752;9.088;2022-12-18T00:21:56;28.13;;;12.17;;
8183;SDS011;4133;48.752;9.088;2022-12-18T00:24:23;29.40;;;11.17;;
8183;SDS011;4133;48.752;9.088;2022-12-18T00:26:49;31.97;;;12.80;;
8183;SDS011;4133;48.752;9.088;2022-12-18T00:29:15;27.13;;;11.27;;
8183;SDS011;4133;48.752;9.088;2022-12-18T00:31:41;26.73;;;12.10;;
8183;SDS011;4133;48.752;9.088;2022-12-18T00:34:09;32.30;;;12.23;;
8183;SDS011;4133;48.752;9.088;2022-12-18T00:36:36;27.80;;;11.57;;
8183;SDS011;4133;48.752;9.088;2022-12-18T00:39:02;27.73;;;11.37;;
8183;SDS011;4133;48.752;9.088;2022-12-18T00:41:29;23.10;;;11.30;;
8183;SDS011;4133;48.752;9.088;2022-12-18T00:44:14;26.40;;;11.10;;
8183;SDS011;4133;48.752;9.088;2022-12-18T00:46:41;21.53;;;10.37;;
8183;SDS011;4133;48.752;9.088;2022-12-18T00:49:07;24.30;;;11.47;;
8183;SDS011;4133;48.752;9.088;2022-12-18T00:51:33;24.37;;;10.90;;
8183;SDS011;4133;48.752;9.088;2022-12-18T00:53:59;25.30;;;10.90;;
8183;SDS011;4133;48.752;9.088;2022-12-18T00:56:25;21.87;;;10.67;;
8183;SDS011;4133;48.752;9.088;2022-12-18T00:58:51;24.43;;;10.53;;
8183;SDS011;4133;48.752;9.088;2022-12-18T01:01:17;25.83;;;10.40;;
8183;SDS011;4133;48.752;9.088;2022-12-18T01:03:43;22.33;;;10.27;;
8183;SDS011;4133;48.752;9.088;2022-12-18T01:06:13;25.13;;;11.27;;
8183;SDS011;4133;48.752;9.088;2022-12-18T01:08:39;26.03;;;11.27;;
8183;SDS011;4133;48.752;9.088;2022-12-18T01:11:13;27.87;;;11.00;;
8183;SDS011;4133;48.752;9.088;2022-12-18T01:13:39;23.10;;;10.47;;
8183;SDS011;4133;48.752;9.088;2022-12-18T01:16:06;21.47;;;10.40;;
8183;SDS011;4133;48.752;9.088;2022-12-18T01:18:32;24.10;;;10.43;;
8183;SDS011;4133;48.752;9.088;2022-12-18T01:20:58;22.03;;;9.60;;
8183;SDS011;4133;48.752;9.088;2022-12-18T01:23:24;19.33;;;10.07;;
8183;SDS011;4133;48.752;9.088;2022-12-18T01:25:50;25.30;;;11.17;;
8183;SDS011;4133;48.752;9.088;2022-12-18T01:28:16;20.70;;;9.37;;
8183;SDS011;4133;48.752;9.088;2022-12-18T01:30:42;21.97;;;9.67;;
8183;SDS011;4133;48.752;9.088;2022-12-18T01:33:08;23.23;;;10.83;;
8183;SDS011;4133;48.752;9.088;2022-12-18T01:35:39;20.40;;;9.60;;
8183;SDS011;4133;48.752;9.088;2022-12-18T01:38:05;24.30;;;10.10;;
8183;SDS011;4133;48.752;9.088;2022-12-18T01:40:31;30.60;;;11.43;;
8183;SDS011;4133;48.752;9.088;2022-12-18T01:42:57;24.33;;;10.00;;
8183;SDS011;4133;48.752;9.088;2022-12-18T01:45:24;21.00;;;10.07;;
8183;SDS011;4133;48.752;9.088;2022-12-18T01:47:51;22.07;;;9.70;;
8183;SDS011;4133;48.752;9.088;2022-12-18T01:50:22;24.23;;;10.17;;
8183;SDS011;4133;48.752;9.088;2022-12-18T01:52:59;23.50;;;10.10;;
8183;SDS011;4133;48.752;9.088;2022-12-18T01:55:27;22.23;;;9.20;;
8183;SDS011;4133;48.752;9.088;2022-12-18T01:57:55;22.63;;;10.60;;
8183;SDS011;4133;48.752;9.088;2022-12-18T02:00:22;24.97;;;10.03;;
8183;SDS011;4133;48.752;9.088;2022-12-18T02:02:48;24.33;;;10.37;;
8183;SDS011;4133;48.752;9.088;2022-12-18T02:05:16;20.80;;;9.40;;
8183;SDS011;4133;48.752;9.088;2022-12-18T02:07:47;19.90;;;8.60;;
8183;SDS011;4133;48.752;9.088;2022-12-18T02:10:19;23.67;;;9.47;;
8183;SDS011;4133;48.752;9.088;2022-12-18T02:12:57;22.67;;;8.87;;
8183;SDS011;4133;48.752;9.088;2022-12-18T02:15:31;18.83;;;9.50;;
8183;SDS011;4133;48.752;9.088;2022-12-18T02:18:01;22.27;;;10.20;;
8183;SDS011;4133;48.752;9.088;2022-12-18T02:20:35;21.00;;;9.53;;
8183;SDS011;4133;48.752;9.088;2022-12-18T02:28:06;18.60;;;8.77;;
8183;SDS011;4133;48.752;9.088;2022-12-18T02:30:35;23.63;;;10.67;;
8183;SDS011;4133;48.752;9.088;2022-12-18T02:33:04;21.27;;;9.47;;
8183;SDS011;4133;48.752;9.088;2022-12-18T02:35:30;22.77;;;9.67;;
8183;SDS011;4133;48.752;9.088;2022-12-18T02:37:56;23.87;;;10.90;;
8183;SDS011;4133;48.752;9.088;2022-12-18T02:40:23;20.67;;;9.33;;
8183;SDS011;4133;48.752;9.088;2022-12-18T02:42:50;22.90;;;10.63;;
8183;SDS011;4133;48.752;9.088;2022-12-18T02:45:16;23.47;;;10.13;;
8183;SDS011;4133;48.752;9.088;2022-12-18T02:47:43;25.77;;;10.03;;
8183;SDS011;4133;48.752;9.088;2022-12-18T02:52:44;21.80;;;10.00;;
8183;SDS011;4133;48.752;9.088;2022-12-18T02:57:52;22.17;;;9.47;;
8183;SDS011;4133;48.752;9.088;2022-12-18T03:00:20;19.37;;;9.10;;
8183;SDS011;4133;48.752;9.088;2022-12-18T03:02:49;25.67;;;10.27;;
8183;SDS011;4133;48.752;9.088;2022-12-18T03:05:18;24.83;;;10.10;;
8183;SDS011;4133;48.752;9.088;2022-12-18T03:07:51;23.83;;;10.13;;
8183;SDS011;4133;48.752;9.088;2022-12-18T03:10:21;22.80;;;10.10;;
8183;SDS011;4133;48.752;9.088;2022-12-18T03:12:51;20.10;;;9.63;;
8183;SDS011;4133;48.752;9.088;2022-12-18T03:17:45;21.33;;;10.10;;
8183;SDS011;4133;48.752;9.088;2022-12-18T03:20:13;21.27;;;9.50;;
8183;SDS011;4133;48.752;9.088;2022-12-18T03:22:40;24.57;;;10.00;;
8183;SDS011;4133;48.752;9.088;2022-12-18T03:25:09;25.07;;;10.97;;
8183;SDS011;4133;48.752;9.088;2022-12-18T03:27:37;24.30;;;11.10;;
8183;SDS011;4133;48.752;9.088;2022-12-18T03:30:05;27.83;;;11.87;;
8183;SDS011;4133;48.752;9.088;2022-12-18T03:32:39;24.70;;;11.17;;
8183;SDS011;4133;48.752;9.088;2022-12-18T03:35:07;22.90;;;10.43;;
8183;SDS011;4133;48.752;9.088;2022-12-18T03:37:33;26.20;;;12.10;;
8183;SDS011;4133;48.752;9.088;2022-12-18T03:40:00;24.27;;;10.53;;
8183;SDS011;4133;48.752;9.088;2022-12-18T03:46:05;23.13;;;9.90;;
8183;SDS011;4133;48.752;9.088;2022-12-18T03:53:08;28.00;;;11.57;;
8183;SDS011;4133;48.752;9.088;2022-12-18T03:55:35;26.90;;;12.10;;
8183;SDS011;4133;48.752;9.088;2022-12-18T03:58:01;27.77;;;11.17;;
8183;SDS011;4133;48.752;9.088;2022-12-18T04:00:29;28.20;;;12.47;;
8183;SDS011;4133;48.752;9.088;2022-12-18T04:02:56;32.13;;;12.37;;
8183;SDS011;4133;48.752;9.088;2022-12-18T04:05:23;25.10;;;11.30;;
8183;SDS011;4133;48.752;9.088;2022-12-18T04:07:50;30.37;;;12.47;;
8183;SDS011;4133;48.752;9.088;2022-12-18T04:10:17;27.83;;;12.80;;
8183;SDS011;4133;48.752;9.088;2022-12-18T04:12:43;33.40;;;12.60;;
8183;SDS011;4133;48.752;9.088;2022-12-18T04:15:10;28.13;;;12.07;;
8183;SDS011;4133;48.752;9.088;2022-12-18T04:17:36;27.50;;;13.20;;
8183;SDS011;4133;48.752;9.088;2022-12-18T04:20:02;31.43;;;12.83;;
8183;SDS011;4133;48.752;9.088;2022-12-18T04:22:28;29.63;;;13.10;;
8183;SDS011;4133;48.752;9.088;2022-12-18T04:24:54;31.33;;;12.57;;
8183;SDS011;4133;48.752;9.088;2022-12-18T04:27:21;25.70;;;12.77;;
8183;SDS011;4133;48.752;9.088;2022-12-18T04:29:47;27.27;;;13.70;;
8183;SDS011;4133;48.752;9.088;2022-12-18T04:32:13;30.37;;;12.50;;
8183;SDS011;4133;48.752;9.088;2022-12-18T04:34:40;28.33;;;12.77;;
8183;SDS011;4133;48.752;9.088;2022-12-18T04:37:06;32.83;;;12.80;;
8183;SDS011;4133;48.752;9.088;2022-12-18T04:39:38;29.03;;;12.67;;
8183;SDS011;4133;48.752;9.088;2022-12-18T04:42:04;24.73;;;11.57;;
8183;SDS011;4133;48.752;9.088;2022-12-18T04:44:30;30.37;;;11.50;;
8183;SDS011;4133;48.752;9.088;2022-12-18T04:46:56;26.23;;;11.67;;
8183;SDS011;4133;48.752;9.088;2022-12-18T04:49:22;24.37;;;11.73;;
8183;SDS011;4133;48.752;9.088;2022-12-18T04:51:48;20.33;;;10.63;;
8183;SDS011;4133;48.752;9.088;2022-12-18T04:54:14;25.17;;;10.97;;
8183;SDS011;4133;48.752;9.088;2022-12-18T04:56:40;26.83;;;11.73;;
8183;SDS011;4133;48.752;9.088;2022-12-18T04:59:06;28.13;;;12.03;;
8183;SDS011;4133;48.752;9.088;2022-12-18T05:01:32;26.67;;;11.70;;
8183;SDS011;4133;48.752;9.088;2022-12-18T05:03:58;22.03;;;10.43;;
8183;SDS011;4133;48.752;9.088;2022-12-18T05:06:24;28.20;;;11.83;;
8183;SDS011;4133;48.752;9.088;2022-12-18T05:08:50;25.50;;;11.50;;
8183;SDS011;4133;48.752;9.088;2022-12-18T05:11:16;25.13;;;11.53;;
8183;SDS011;4133;48.752;9.088;2022-12-18T05:13:43;24.90;;;11.63;;
8183;SDS011;4133;48.752;9.088;2022-12-18T05:16:09;29.13;;;12.13;;
8183;SDS011;4133;48.752;9.088;2022-12-18T05:18:36;28.63;;;12.33;;
8183;SDS011;4133;48.752;9.088;2022-12-18T05:21:02;29.77;;;12.00;;
8183;SDS011;4133;48.752;9.088;2022-12-18T05:23:28;27.10;;;11.43;;
8183;SDS011;4133;48.752;9.088;2022-12-18T05:25:58;30.77;;;12.73;;
8183;SDS011;4133;48.752;9.088;2022-12-18T05:28:26;29.10;;;11.73;;
8183;SDS011;4133;48.752;9.088;2022-12-18T05:30:53;25.00;;;11.13;;
8183;SDS011;4133;48.752;9.088;2022-12-18T05:33:20;29.03;;;11.90;;
8183;SDS011;4133;48.752;9.088;2022-12-18T05:35:52;24.13;;;11.30;;
8183;SDS011;4133;48.752;9.088;2022-12-18T05:38:22;28.83;;;11.97;;
8183;SDS011;4133;48.752;9.088;2022-12-18T05:40:49;26.07;;;11.63;;
8183;SDS011;4133;48.752;9.088;2022-12-18T05:43:16;26.90;;;11.60;;
8183;SDS011;4133;48.752;9.088;2022-12-18T05:45:42;22.40;;;11.00;;
8183;SDS011;4133;48.752;9.088;2022-12-18T05:48:09;27.17;;;11.30;;
8183;SDS011;4133;48.752;9.088;2022-12-18T05:50:39;28.17;;;11.23;;
8183;SDS011;4133;48.752;9.088;2022-12-18T05:53:05;23.37;;;10.77;;
8183;SDS011;4133;48.752;9.088;2022-12-18T05:55:36;21.70;;;10.63;;
8183;SDS011;4133;48.752;9.088;2022-12-18T05:58:03;23.60;;;10.60;;
8183;SDS011;4133;48.752;9.088;2022-12-18T06:00:29;26.13;;;11.63;;
8183;SDS011;4133;48.752;9.088;2022-12-18T06:02:56;25.57;;;12.00;;
8183;SDS011;4133;48.752;9.088;2022-12-18T06:05:22;23.97;;;10.47;;
8183;SDS011;4133;48.752;9.088;2022-12-18T06:07:48;23.80;;;10.33;;
8183;SDS011;4133;48.752;9.088;2022-12-18T06:10:14;23.13;;;11.33;;
8183;SDS011;4133;48.752;9.088;2022-12-18T06:12:41;25.70;;;11.67;;
8183;SDS011;4133;48.752;9.088;2022-12-18T06:15:07;24.33;;;11.23;;
8183;SDS011;4133;48.752;9.088;2022-12-18T06:17:33;21.73;;;10.60;;
8183;SDS011;4133;48.752;9.088;2022-12-18T06:20:02;25.77;;;10.97;;
8183;SDS011;4133;48.752;9.088;2022-12-18T06:22:30;24.23;;;10.97;;
8183;SDS011;4133;48.752;9.088;2022-12-18T06:24:57;20.10;;;10.10;;
8183;SDS011;4133;48.752;9.088;2022-12-18T06:27:24;20.77;;;11.07;;
8183;SDS011;4133;48.752;9.088;2022-12-18T06:29:50;24.10;;;10.83;;
8183;SDS011;4133;48.752;9.088;2022-12-18T06:32:16;20.73;;;10.40;;
8183;SDS011;4133;48.752;9.088;2022-12-18T06:34:42;25.17;;;10.10;;
8183;SDS011;4133;48.752;9.088;2022-12-18T06:37:08;21.10;;;10.17;;
8183;SDS011;4133;48.752;9.088;2022-12-18T06:39:41;19.73;;;9.80;;
8183;SDS011;4133;48.752;9.088;2022-12-18T06:42:07;23.33;;;10.53;;
8183;SDS011;4133;48.752;9.088;2022-12-18T06:44:33;22.83;;;10.17;;
8183;SDS011;4133;48.752;9.088;2022-12-18T06:46:59;22.90;;;9.90;;
8183;SDS011;4133;48.752;9.088;2022-12-18T06:49:25;20.17;;;9.27;;
8183;SDS011;4133;48.752;9.088;2022-12-18T06:51:50;24.73;;;11.17;;
8183;SDS011;4133;48.752;9.088;2022-12-18T06:54:17;24.43;;;10.50;;
8183;SDS011;4133;48.752;9.088;2022-12-18T06:56:44;20.27;;;10.17;;
8183;SDS011;4133;48.752;9.088;2022-12-18T06:59:10;21.17;;;9.87;;
8183;SDS011;4133;48.752;9.088;2022-12-18T07:01:36;26.00;;;11.17;;
8183;SDS011;4133;48.752;9.088;2022-12-18T07:04:02;22.77;;;10.10;;
8183;SDS011;4133;48.752;9.088;2022-12-18T07:06:28;21.73;;;9.73;;
8183;SDS011;4133;48.752;9.088;2022-12-18T07:08:54;22.33;;;10.17;;
8183;SDS011;4133;48.752;9.088;2022-12-18T07:11:20;23.67;;;9.63;;
8183;SDS011;4133;48.752;9.088;2022-12-18T07:13:46;23.63;;;10.13;;
8183;SDS011;4133;48.752;9.088;2022-12-18T07:16:13;24.43;;;10.83;;
8183;SDS011;4133;48.752;9.088;2022-12-18T07:18:40;21.33;;;9.80;;
8183;SDS011;4133;48.752;9.088;2022-12-18T07:21:06;23.57;;;9.07;;
8183;SDS011;4133;48.752;9.088;2022-12-18T07:23:33;22.23;;;9.70;;
8183;SDS011;4133;48.752;9.088;2022-12-18T07:26:00;20.23;;;8.97;;
8183;SDS011;4133;48.752;9.088;2022-12-18T07:28:27;24.20;;;10.07;;
8183;SDS011;4133;48.752;9.088;2022-12-18T07:30:53;22.63;;;10.53;;
8183;SDS011;4133;48.752;9.088;2022-12-18T07:33:19;24.53;;;10.47;;
8183;SDS011;4133;48.752;9.088;2022-12-18T07:35:45;18.73;;;8.50;;
8183;SDS011;4133;48.752;9.088;2022-12-18T07:38:12;23.33;;;9.23;;
8183;SDS011;4133;48.752;9.088;2022-12-18T07:43:41;21.27;;;9.03;;
8183;SDS011;4133;48.752;9.088;2022-12-18T07:46:07;23.80;;;10.07;;
8183;SDS011;4133;48.752;9.088;2022-12-18T07:48:34;19.20;;;9.60;;
8183;SDS011;4133;48.752;9.088;2022-12-18T07:51:00;21.87;;;10.83;;
8183;SDS011;4133;48.752;9.088;2022-12-18T07:53:27;22.93;;;9.73;;
8183;SDS011;4133;48.752;9.088;2022-12-18T07:55:57;22.43;;;10.37;;
8183;SDS011;4133;48.752;9.088;2022-12-18T07:58:23;21.50;;;10.50;;
8183;SDS011;4133;48.752;9.088;2022-12-18T08:00:49;20.93;;;9.73;;
8183;SDS011;4133;48.752;9.088;2022-12-18T08:03:15;22.07;;;9.80;;
8183;SDS011;4133;48.752;9.088;2022-12-18T08:05:41;18.03;;;9.17;;
8183;SDS011;4133;48.752;9.088;2022-12-18T08:08:07;21.00;;;10.40;;
8183;SDS011;4133;48.752;9.088;2022-12-18T08:10:33;24.73;;;10.40;;
8183;SDS011;4133;48.752;9.088;2022-12-18T08:12:59;22.83;;;10.17;;
8183;SDS011;4133;48.752;9.088;2022-12-18T08:15:25;20.57;;;10.00;;
8183;SDS011;4133;48.752;9.088;2022-12-18T08:17:51;24.03;;;10.27;;
8183;SDS011;4133;48.752;9.088;2022-12-18T08:20:17;21.90;;;9.87;;
8183;SDS011;4133;48.752;9.088;2022-12-18T08:22:43;27.13;;;11.13;;
8183;SDS011;4133;48.752;9.088;2022-12-18T08:25:09;21.70;;;10.43;;
8183;SDS011;4133;48.752;9.088;2022-12-18T08:27:36;17.87;;;8.77;;
8183;SDS011;4133;48.752;9.088;2022-12-18T08:30:03;18.83;;;9.60;;
8183;SDS011;4133;48.752;9.088;2022-12-18T08:32:29;19.13;;;9.57;;
8183;SDS011;4133;48.752;9.088;2022-12-18T08:34:55;20.80;;;10.23;;
8183;SDS011;4133;48.752;9.088;2022-12-18T08:37:21;23.50;;;11.43;;
8183;SDS011;4133;48.752;9.088;2022-12-18T08:42:50;22.20;;;10.17;;
8183;SDS011;4133;48.752;9.088;2022-12-18T08:45:35;19.73;;;9.73;;
8183;SDS011;4133;48.752;9.088;2022-12-18T08:48:01;24.90;;;10.57;;
8183;SDS011;4133;48.752;9.088;2022-12-18T08:50:27;28.60;;;10.80;;
8183;SDS011;4133;48.752;9.088;2022-12-18T08:52:53;23.23;;;10.43;;
8183;SDS011;4133;48.752;9.088;2022-12-18T08:55:19;21.67;;;10.43;;
8183;SDS011;4133;48.752;9.088;2022-12-18T08:57:47;24.77;;;11.43;;
8183;SDS011;4133;48.752;9.088;2022-12-18T09:00:14;22.67;;;11.13;;
8183;SDS011;4133;48.752;9.088;2022-12-18T09:02:40;23.30;;;11.57;;
8183;SDS011;4133;48.752;9.088;2022-12-18T09:05:06;25.77;;;11.40;;
8183;SDS011;4133;48.752;9.088;2022-12-18T09:07:32;25.33;;;10.93;;
8183;SDS011;4133;48.752;9.088;2022-12-18T09:09:58;21.63;;;12.03;;
8183;SDS011;4133;48.752;9.088;2022-12-18T09:12:24;25.50;;;11.97;;
8183;SDS011;4133;48.752;9.088;2022-12-18T09:14:50;22.07;;;11.73;;
8183;SDS011;4133;48.752;9.088;2022-12-18T09:17:16;23.17;;;11.17;;
8183;SDS011;4133;48.752;9.088;2022-12-18T09:19:42;21.83;;;11.67;;
8183;SDS011;4133;48.752;9.088;2022-12-18T09:22:08;22.23;;;11.77;;
8183;SDS011;4133;48.752;9.088;2022-12-18T09:24:35;21.07;;;11.10;;
8183;SDS011;4133;48.752;9.088;2022-12-18T09:27:01;23.57;;;12.07;;
8183;SDS011;4133;48.752;9.088;2022-12-18T09:29:27;24.00;;;12.17;;
8183;SDS011;4133;48.752;9.088;2022-12-18T09:31:53;26.27;;;12.77;;
8183;SDS011;4133;48.752;9.088;2022-12-18T09:34:19;24.10;;;11.87;;
8183;SDS011;4133;48.752;9.088;2022-12-18T09:36:48;25.80;;;12.77;;
8183;SDS011;4133;48.752;9.088;2022-12-18T09:39:24;24.17;;;12.43;;
8183;SDS011;4133;48.752;9.088;2022-12-18T09:41:51;23.17;;;11.90;;
8183;SDS011;4133;48.752;9.088;2022-12-18T09:49:34;24.73;;;12.73;;
8183;SDS011;4133;48.752;9.088;2022-12-18T09:52:11;25.53;;;12.07;;
8183;SDS011;4133;48.752;9.088;2022-12-18T09:54:39;24.87;;;12.43;;
8183;SDS011;4133;48.752;9.088;2022-12-18T09:57:05;23.73;;;12.37;;
8183;SDS011;4133;48.752;9.088;2022-12-18T09:59:38;23.53;;;12.80;;
8183;SDS011;4133;48.752;9.088;2022-12-18T10:02:38;25.20;;;12.37;;
8183;SDS011;4133;48.752;9.088;2022-12-18T10:05:02;26.33;;;13.20;;
8183;SDS011;4133;48.752;9.088;2022-12-18T10:07:34;24.10;;;12.77;;
8183;SDS011;4133;48.752;9.088;2022-12-18T10:10:04;26.50;;;13.23;;
8183;SDS011;4133;48.752;9.088;2022-12-18T10:15:22;28.23;;;13.30;;
8183;SDS011;4133;48.752;9.088;2022-12-18T10:25:21;23.50;;;12.87;;
8183;SDS011;4133;48.752;9.088;2022-12-18T10:27:48;26.67;;;13.80;;
8183;SDS011;4133;48.752;9.088;2022-12-18T10:30:20;25.47;;;12.77;;
8183;SDS011;4133;48.752;9.088;2022-12-18T10:32:46;25.07;;;12.47;;
8183;SDS011;4133;48.752;9.088;2022-12-18T10:35:23;24.40;;;13.10;;
8183;SDS011;4133;48.752;9.088;2022-12-18T10:37:59;23.10;;;12.13;;
8183;SDS011;4133;48.752;9.088;2022-12-18T10:40:47;23.57;;;13.10;;
8183;SDS011;4133;48.752;9.088;2022-12-18T10:43:14;24.97;;;12.97;;
8183;SDS011;4133;48.752;9.088;2022-12-18T10:45:41;25.67;;;13.07;;
8183;SDS011;4133;48.752;9.088;2022-12-18T10:48:26;23.33;;;11.80;;
8183;SDS011;4133;48.752;9.088;2022-12-18T10:50:52;24.53;;;12.50;;
8183;SDS011;4133;48.752;9.088;2022-12-18T10:53:23;27.93;;;13.43;;
8183;SDS011;4133;48.752;9.088;2022-12-18T10:55:49;24.93;;;13.20;;
8183;SDS011;4133;48.752;9.088;2022-12-18T10:58:20;23.23;;;12.50;;
8183;SDS011;4133;48.752;9.088;2022-12-18T11:01:04;23.90;;;12.00;;
8183;SDS011;4133;48.752;9.088;2022-12-18T11:03:32;24.17;;;13.23;;
8183;SDS011;4133;48.752;9.088;2022-12-18T11:06:02;24.17;;;12.87;;
8183;SDS011;4133;48.752;9.088;2022-12-18T11:08:29;25.33;;;13.27;;
8183;SDS011;4133;48.752;9.088;2022-12-18T11:10:55;23.90;;;13.07;;
8183;SDS011;4133;48.752;9.088;2022-12-18T11:13:22;24.77;;;14.23;;
8183;SDS011;4133;48.752;9.088;2022-12-18T11:15:49;24.87;;;12.97;;
8183;SDS011;4133;48.752;9.088;2022-12-18T11:18:19;25.57;;;14.03;;
8183;SDS011;4133;48.752;9.088;2022-12-18T11:20:51;25.53;;;12.90;;
8183;SDS011;4133;48.752;9.088;2022-12-18T11:23:18;25.30;;;13.33;;
8183;SDS011;4133;48.752;9.088;2022-12-18T11:25:58;24.10;;;13.03;;
8183;SDS011;4133;48.752;9.088;2022-12-18T11:28:29;24.40;;;13.00;;
8183;SDS011;4133;48.752;9.088;2022-12-18T11:33:42;24.87;;;12.70;;
8183;SDS011;4133;48.752;9.088;2022-12-18T11:36:09;23.03;;;13.77;;
8183;SDS011;4133;48.752;9.088;2022-12-18T11:38:36;25.77;;;14.50;;
8183;SDS011;4133;48.752;9.088;2022-12-18T11:44:11;26.33;;;14.13;;
8183;SDS011;4133;48.752;9.088;2022-12-18T11:46:42;24.33;;;13.03;;
8183;SDS011;4133;48.752;9.088;2022-12-18T11:49:12;27.83;;;14.13;;
8183;SDS011;4133;48.752;9.088;2022-12-18T11:51:45;29.47;;;15.27;;
8183;SDS011;4133;48.752;9.088;2022-12-18T11:54:14;28.13;;;14.70;;
8183;SDS011;4133;48.752;9.088;2022-12-18T11:56:46;27.33;;;14.17;;
8183;SDS011;4133;48.752;9.088;2022-12-18T12:01:43;28.20;;;14.77;;
8183;SDS011;4133;48.752;9.088;2022-12-18T12:19:43;28.43;;;14.80;;
8183;SDS011;4133;48.752;9.088;2022-12-18T12:30:05;29.80;;;15.40;;
8183;SDS011;4133;48.752;9.088;2022-12-18T12:40:33;29.43;;;15.57;;
8183;SDS011;4133;48.752;9.088;2022-12-18T12:43:02;30.83;;;15.60;;
8183;SDS011;4133;48.752;9.088;2022-12-18T12:45:44;26.20;;;14.93;;
8183;SDS011;4133;48.752;9.088;2022-12-18T12:48:28;26.57;;;14.73;;
8183;SDS011;4133;48.752;9.088;2022-12-18T12:50:58;29.63;;;15.40;;
8183;SDS011;4133;48.752;9.088;2022-12-18T12:53:26;30.07;;;15.57;;
8183;SDS011;4133;48.752;9.088;2022-12-18T12:55:54;29.40;;;15.70;;
8183;SDS011;4133;48.752;9.088;2022-12-18T13:03:54;27.13;;;15.00;;
8183;SDS011;4133;48.752;9.088;2022-12-18T13:08:55;30.53;;;15.87;;
8183;SDS011;4133;48.752;9.088;2022-12-18T13:11:29;29.10;;;15.23;;
8183;SDS011;4133;48.752;9.088;2022-12-18T13:14:21;26.57;;;14.83;;
8183;SDS011;4133;48.752;9.088;2022-12-18T13:16:48;32.77;;;15.07;;
8183;SDS011;4133;48.752;9.088;2022-12-18T13:19:23;29.23;;;15.20;;
8183;SDS011;4133;48.752;9.088;2022-12-18T13:21:52;30.87;;;16.53;;
8183;SDS011;4133;48.752;9.088;2022-12-18T13:24:26;30.20;;;16.30;;
8183;SDS011;4133;48.752;9.088;2022-12-18T13:26:53;30.73;;;16.13;;
8183;SDS011;4133;48.752;9.088;2022-12-18T13:32:22;29.03;;;16.10;;
8183;SDS011;4133;48.752;9.088;2022-12-18T13:34:48;29.73;;;15.70;;
8183;SDS011;4133;48.752;9.088;2022-12-18T13:40:24;29.30;;;15.20;;
8183;SDS011;4133;48.752;9.088;2022-12-18T13:42:51;30.87;;;16.20;;
8183;SDS011;4133;48.752;9.088;2022-12-18T13:45:37;31.30;;;16.67;;
8183;SDS011;4133;48.752;9.088;2022-12-18T13:48:03;36.10;;;18.70;;
8183;SDS011;4133;48.752;9.088;2022-12-18T13:50:30;32.77;;;17.57;;
8183;SDS011;4133;48.752;9.088;2022-12-18T13:52:56;34.43;;;17.90;;
8183;SDS011;4133;48.752;9.088;2022-12-18T13:55:23;30.83;;;17.10;;
8183;SDS011;4133;48.752;9.088;2022-12-18T13:57:49;32.83;;;20.07;;
8183;SDS011;4133;48.752;9.088;2022-12-18T14:02:48;34.07;;;17.57;;
8183;SDS011;4133;48.752;9.088;2022-12-18T14:07:52;32.17;;;17.40;;
8183;SDS011;4133;48.752;9.088;2022-12-18T14:10:19;32.47;;;17.00;;
8183;SDS011;4133;48.752;9.088;2022-12-18T14:12:46;32.77;;;16.73;;
8183;SDS011;4133;48.752;9.088;2022-12-18T14:18:38;28.03;;;15.80;;
8183;SDS011;4133;48.752;9.088;2022-12-18T14:20:39;30.47;;;15.83;;
8183;SDS011;4133;48.752;9.088;2022-12-18T14:23:24;32.20;;;15.10;;
8183;SDS011;4133;48.752;9.088;2022-12-18T14:25:50;25.83;;;13.07;;
8183;SDS011;4133;48.752;9.088;2022-12-18T14:28:16;27.40;;;14.17;;
8183;SDS011;4133;48.752;9.088;2022-12-18T14:30:43;28.30;;;14.37;;
8183;SDS011;4133;48.752;9.088;2022-12-18T14:33:10;28.07;;;14.17;;
8183;SDS011;4133;48.752;9.088;2022-12-18T14:35:41;29.17;;;14.90;;
8183;SDS011;4133;48.752;9.088;2022-12-18T14:40:46;29.17;;;14.70;;
8183;SDS011;4133;48.752;9.088;2022-12-18T14:43:13;31.27;;;14.70;;
8183;SDS011;4133;48.752;9.088;2022-12-18T14:45:39;26.53;;;14.07;;
8183;SDS011;4133;48.752;9.088;2022-12-18T14:48:07;29.87;;;14.67;;
8183;SDS011;4133;48.752;9.088;2022-12-18T14:50:33;30.87;;;15.43;;
8183;SDS011;4133;48.752;9.088;2022-12-18T14:52:59;30.47;;;14.80;;
8183;SDS011;4133;48.752;9.088;2022-12-18T14:55:25;29.03;;;14.80;;
8183;SDS011;4133;48.752;9.088;2022-12-18T14:57:52;29.20;;;15.10;;
8183;SDS011;4133;48.752;9.088;2022-12-18T15:00:20;28.07;;;15.17;;
8183;SDS011;4133;48.752;9.088;2022-12-18T15:05:41;30.70;;;15.40;;
8183;SDS011;4133;48.752;9.088;2022-12-18T15:08:24;29.27;;;14.57;;
8183;SDS011;4133;48.752;9.088;2022-12-18T15:10:52;30.73;;;15.17;;
8183;SDS011;4133;48.752;9.088;2022-12-18T15:13:21;30.77;;;15.57;;
8183;SDS011;4133;48.752;9.088;2022-12-18T15:15:48;30.43;;;15.07;;
8183;SDS011;4133;48.752;9.088;2022-12-18T15:18:18;29.67;;;14.37;;
8183;SDS011;4133;48.752;9.088;2022-12-18T15:20:47;29.40;;;15.27;;
8183;SDS011;4133;48.752;9.088;2022-12-18T15:23:15;32.80;;;16.23;;
8183;SDS011;4133;48.752;9.088;2022-12-18T15:25:42;32.93;;;15.57;;
8183;SDS011;4133;48.752;9.088;2022-12-18T15:28:18;31.70;;;15.60;;
8183;SDS011;4133;48.752;9.088;2022-12-18T15:30:58;33.67;;;16.43;;
8183;SDS011;4133;48.752;9.088;2022-12-18T15:33:25;32.73;;;16.17;;
8183;SDS011;4133;48.752;9.088;2022-12-18T15:36:02;32.67;;;15.73;;
8183;SDS011;4133;48.752;9.088;2022-12-18T15:38:28;33.07;;;15.50;;
8183;SDS011;4133;48.752;9.088;2022-12-18T15:40:54;34.00;;;17.00;;
8183;SDS011;4133;48.752;9.088;2022-12-18T15:43:24;31.10;;;15.77;;
8183;SDS011;4133;48.752;9.088;2022-12-18T15:46:02;33.00;;;15.77;;
8183;SDS011;4133;48.752;9.088;2022-12-18T15:48:28;32.40;;;16.07;;
8183;SDS011;4133;48.752;9.088;2022-12-18T15:50:55;33.50;;;16.13;;
8183;SDS011;4133;48.752;9.088;2022-12-18T15:53:23;31.00;;;15.93;;
8183;SDS011;4133;48.752;9.088;2022-12-18T15:55:49;33.20;;;17.00;;
8183;SDS011;4133;48.752;9.088;2022-12-18T15:58:34;34.60;;;16.70;;
8183;SDS011;4133;48.752;9.088;2022-12-18T16:01:00;34.47;;;16.60;;
8183;SDS011;4133;48.752;9.088;2022-12-18T16:03:35;32.23;;;16.60;;
8183;SDS011;4133;48.752;9.088;2022-12-18T16:06:01;31.80;;;15.63;;
8183;SDS011;4133;48.752;9.088;2022-12-18T16:08:28;37.33;;;17.57;;
8183;SDS011;4133;48.752;9.088;2022-12-18T16:10:55;33.30;;;17.17;;
8183;SDS011;4133;48.752;9.088;2022-12-18T16:13:21;33.30;;;16.57;;
8183;SDS011;4133;48.752;9.088;2022-12-18T16:15:47;35.10;;;16.80;;
8183;SDS011;4133;48.752;9.088;2022-12-18T16:18:13;32.50;;;16.70;;
8183;SDS011;4133;48.752;9.088;2022-12-18T16:20:39;32.93;;;16.87;;
8183;SDS011;4133;48.752;9.088;2022-12-18T16:23:06;34.47;;;17.50;;
8183;SDS011;4133;48.752;9.088;2022-12-18T16:25:32;35.57;;;17.17;;
8183;SDS011;4133;48.752;9.088;2022-12-18T16:27:58;35.43;;;16.17;;
8183;SDS011;4133;48.752;9.088;2022-12-18T16:30:28;34.30;;;16.87;;
8183;SDS011;4133;48.752;9.088;2022-12-18T16:32:55;31.60;;;16.40;;
8183;SDS011;4133;48.752;9.088;2022-12-18T16:35:24;32.90;;;15.93;;
8183;SDS011;4133;48.752;9.088;2022-12-18T16:37:50;34.10;;;16.70;;
8183;SDS011;4133;48.752;9.088;2022-12-18T16:43:20;29.93;;;15.73;;
8183;SDS011;4133;48.752;9.088;2022-12-18T16:45:46;32.77;;;15.83;;
8183;SDS011;4133;48.752;9.088;2022-12-18T16:48:12;33.70;;;15.43;;